sensor_id;sensor_type;location;lat;lon;timestamp;temperature;humidity
27270;DHT22;14769;56.934;24.176;2022-10-16T00:04:54;12.40;99.90
27270;DHT22;14769;56.934;24.176;2022-10-16T00:06:42;12.40;99.90
27270;DHT22;14769;56.934;24.176;2022-10-16T00:07:45;12.40;99.90
27270;DHT22;14769;56.934;24.176;2022-10-16T00:08:47;12.40;99.90
27270;DHT22;14769;56.934;24.176;2022-10-16T00:09:52;12.40;99.90
27270;DHT22;14769;56.934;24.176;2022-10-16T00:11:05;12.40;99.90
27270;DHT22;14769;56.934;24.176;2022-10-16T00:12:08;12.50;99.90
27270;DHT22;14769;56.934;24.176;2022-10-16T00:13:12;12.50;99.90
27270;DHT22;14769;56.934;24.176;2022-10-16T00:14:14;12.50;99.90
27270;DHT22;14769;56.934;24.176;2022-10-16T00:15:17;12.50;99.90
27270;DHT22;14769;56.934;24.176;2022-10-16T00:16:19;12.50;99.90
27270;DHT22;14769;56.934;24.176;2022-10-16T00:17:21;12.50;99.90
27270;DHT22;14769;56.934;24.176;2022-10-16T00:18:25;12.50;99.90
27270;DHT22;14769;56.934;24.176;2022-10-16T00:19:27;12.50;99.90
27270;DHT22;14769;56.934;24.176;2022-10-16T00:20:29;12.60;99.90
27270;DHT22;14769;56.934;24.176;2022-10-16T00:21:33;12.50;99.90
27270;DHT22;14769;56.934;24.176;2022-10-16T00:22:38;12.50;99.90
27270;DHT22;14769;56.934;24.176;2022-10-16T00:23:49;12.50;99.90
27270;DHT22;14769;56.934;24.176;2022-10-16T00:24:52;12.50;99.90
27270;DHT22;14769;56.934;24.176;2022-10-16T00:25:59;12.50;99.90
27270;DHT22;14769;56.934;24.176;2022-10-16T00:27:11;12.50;99.90
27270;DHT22;14769;56.934;24.176;2022-10-16T00:28:17;12.50;99.90
27270;DHT22;14769;56.934;24.176;2022-10-16T00:29:21;12.50;99.90
27270;DHT22;14769;56.934;24.176;2022-10-16T00:30:23;12.50;99.90
27270;DHT22;14769;56.934;24.176;2022-10-16T00:31:26;12.50;99.90
27270;DHT22;14769;56.934;24.176;2022-10-16T00:32:28;12.50;99.90
27270;DHT22;14769;56.934;24.176;2022-10-16T00:33:35;12.50;99.90
27270;DHT22;14769;56.934;24.176;2022-10-16T00:34:40;12.50;99.90
27270;DHT22;14769;56.934;24.176;2022-10-16T00:35:42;12.40;99.90
27270;DHT22;14769;56.934;24.176;2022-10-16T00:36:46;12.50;99.90
27270;DHT22;14769;56.934;24.176;2022-10-16T00:37:50;12.50;99.90
27270;DHT22;14769;56.934;24.176;2022-10-16T00:41:35;12.50;99.90
27270;DHT22;14769;56.934;24.176;2022-10-16T00:42:38;12.40;99.90
27270;DHT22;14769;56.934;24.176;2022-10-16T00:44:57;12.30;99.90
27270;DHT22;14769;56.934;24.176;2022-10-16T00:46:01;12.40;99.90
27270;DHT22;14769;56.934;24.176;2022-10-16T00:47:42;12.40;99.90
27270;DHT22;14769;56.934;24.176;2022-10-16T00:49:13;12.40;99.90
27270;DHT22;14769;56.934;24.176;2022-10-16T00:50:27;12.40;99.90
27270;DHT22;14769;56.934;24.176;2022-10-16T00:51:54;12.40;99.90
27270;DHT22;14769;56.934;24.176;2022-10-16T00:52:58;12.40;99.90
27270;DHT22;14769;56.934;24.176;2022-10-16T00:54:16;12.40;99.90
27270;DHT22;14769;56.934;24.176;2022-10-16T00:55:24;12.40;99.90
27270;DHT22;14769;56.934;24.176;2022-10-16T00:56:31;12.40;99.90
27270;DHT22;14769;56.934;24.176;2022-10-16T00:57:38;12.40;99.90
27270;DHT22;14769;56.934;24.176;2022-10-16T00:58:42;12.40;99.90
27270;DHT22;14769;56.934;24.176;2022-10-16T00:59:53;12.40;99.90
27270;DHT22;14769;56.934;24.176;2022-10-16T01:00:56;12.40;99.90
27270;DHT22;14769;56.934;24.176;2022-10-16T01:02:12;12.40;99.90
27270;DHT22;14769;56.934;24.176;2022-10-16T01:03:30;12.40;99.90
27270;DHT22;14769;56.934;24.176;2022-10-16T01:04:42;12.40;99.90
27270;DHT22;14769;56.934;24.176;2022-10-16T01:07:44;12.40;99.90
27270;DHT22;14769;56.934;24.176;2022-10-16T01:09:08;12.40;99.90
27270;DHT22;14769;56.934;24.176;2022-10-16T01:10:40;12.40;99.90
27270;DHT22;14769;56.934;24.176;2022-10-16T01:12:01;12.40;99.90
27270;DHT22;14769;56.934;24.176;2022-10-16T01:13:12;12.40;99.90
27270;DHT22;14769;56.934;24.176;2022-10-16T01:17:25;12.40;99.90
27270;DHT22;14769;56.934;24.176;2022-10-16T01:18:44;12.40;99.90
27270;DHT22;14769;56.934;24.176;2022-10-16T01:21:40;12.40;99.90
27270;DHT22;14769;56.934;24.176;2022-10-16T01:24:42;12.40;99.90
27270;DHT22;14769;56.934;24.176;2022-10-16T01:27:40;12.40;99.90
27270;DHT22;14769;56.934;24.176;2022-10-16T01:28:55;12.40;99.90
27270;DHT22;14769;56.934;24.176;2022-10-16T01:30:21;12.50;99.90
27270;DHT22;14769;56.934;24.176;2022-10-16T01:33:02;12.40;99.90
27270;DHT22;14769;56.934;24.176;2022-10-16T01:34:22;12.40;99.90
27270;DHT22;14769;56.934;24.176;2022-10-16T01:35:38;12.50;99.90
27270;DHT22;14769;56.934;24.176;2022-10-16T01:37:00;12.50;99.90
27270;DHT22;14769;56.934;24.176;2022-10-16T01:38:23;12.40;99.90
27270;DHT22;14769;56.934;24.176;2022-10-16T01:39:30;12.50;99.90
27270;DHT22;14769;56.934;24.176;2022-10-16T01:40:36;12.40;99.90
27270;DHT22;14769;56.934;24.176;2022-10-16T01:41:45;12.50;99.90
27270;DHT22;14769;56.934;24.176;2022-10-16T01:42:52;12.50;99.90
27270;DHT22;14769;56.934;24.176;2022-10-16T01:44:07;12.50;99.90
27270;DHT22;14769;56.934;24.176;2022-10-16T01:45:13;12.50;99.90
27270;DHT22;14769;56.934;24.176;2022-10-16T01:46:20;12.50;99.90
27270;DHT22;14769;56.934;24.176;2022-10-16T01:47:25;12.50;99.90
27270;DHT22;14769;56.934;24.176;2022-10-16T01:48:29;12.50;99.90
27270;DHT22;14769;56.934;24.176;2022-10-16T01:49:36;12.50;99.90
27270;DHT22;14769;56.934;24.176;2022-10-16T01:50:48;12.50;99.90
27270;DHT22;14769;56.934;24.176;2022-10-16T01:52:00;12.40;99.90
27270;DHT22;14769;56.934;24.176;2022-10-16T01:53:05;12.40;99.90
27270;DHT22;14769;56.934;24.176;2022-10-16T01:54:09;12.40;99.90
27270;DHT22;14769;56.934;24.176;2022-10-16T01:55:33;12.40;99.90
27270;DHT22;14769;56.934;24.176;2022-10-16T01:56:37;12.40;99.90
27270;DHT22;14769;56.934;24.176;2022-10-16T01:57:45;12.30;99.90
27270;DHT22;14769;56.934;24.176;2022-10-16T01:59:05;12.30;99.90
27270;DHT22;14769;56.934;24.176;2022-10-16T02:00:12;12.30;99.90
27270;DHT22;14769;56.934;24.176;2022-10-16T02:01:26;12.30;99.90
27270;DHT22;14769;56.934;24.176;2022-10-16T02:02:32;12.30;99.90
27270;DHT22;14769;56.934;24.176;2022-10-16T02:03:40;12.30;99.90
27270;DHT22;14769;56.934;24.176;2022-10-16T02:04:50;12.30;99.90
27270;DHT22;14769;56.934;24.176;2022-10-16T02:05:56;12.30;99.90
27270;DHT22;14769;56.934;24.176;2022-10-16T02:07:00;12.40;99.90
27270;DHT22;14769;56.934;24.176;2022-10-16T02:08:02;12.30;99.90
27270;DHT22;14769;56.934;24.176;2022-10-16T02:09:06;12.30;99.90
27270;DHT22;14769;56.934;24.176;2022-10-16T02:10:08;12.40;99.90
27270;DHT22;14769;56.934;24.176;2022-10-16T02:11:11;12.30;99.90
27270;DHT22;14769;56.934;24.176;2022-10-16T02:12:28;12.30;99.90
27270;DHT22;14769;56.934;24.176;2022-10-16T02:13:38;12.40;99.90
27270;DHT22;14769;56.934;24.176;2022-10-16T02:14:42;12.40;99.90
27270;DHT22;14769;56.934;24.176;2022-10-16T02:15:44;12.30;99.90
27270;DHT22;14769;56.934;24.176;2022-10-16T02:16:47;12.30;99.90
27270;DHT22;14769;56.934;24.176;2022-10-16T02:17:50;12.30;99.90
27270;DHT22;14769;56.934;24.176;2022-10-16T02:18:52;12.30;99.90
27270;DHT22;14769;56.934;24.176;2022-10-16T02:19:56;12.30;99.90
27270;DHT22;14769;56.934;24.176;2022-10-16T02:21:14;12.40;99.90
27270;DHT22;14769;56.934;24.176;2022-10-16T02:22:34;12.40;99.90
27270;DHT22;14769;56.934;24.176;2022-10-16T02:24:55;12.30;99.90
27270;DHT22;14769;56.934;24.176;2022-10-16T02:26:03;12.30;99.90
27270;DHT22;14769;56.934;24.176;2022-10-16T02:27:34;12.30;99.90
27270;DHT22;14769;56.934;24.176;2022-10-16T02:28:42;12.40;99.90
27270;DHT22;14769;56.934;24.176;2022-10-16T02:30:02;12.30;99.90
27270;DHT22;14769;56.934;24.176;2022-10-16T02:31:11;12.40;99.90
27270;DHT22;14769;56.934;24.176;2022-10-16T02:32:17;12.40;99.90
27270;DHT22;14769;56.934;24.176;2022-10-16T02:33:22;12.40;99.90
27270;DHT22;14769;56.934;24.176;2022-10-16T02:34:25;12.40;99.90
27270;DHT22;14769;56.934;24.176;2022-10-16T02:35:29;12.40;99.90
27270;DHT22;14769;56.934;24.176;2022-10-16T02:36:33;12.40;99.90
27270;DHT22;14769;56.934;24.176;2022-10-16T02:37:38;12.40;99.90
27270;DHT22;14769;56.934;24.176;2022-10-16T02:38:42;12.40;99.90
27270;DHT22;14769;56.934;24.176;2022-10-16T02:39:44;12.40;99.90
27270;DHT22;14769;56.934;24.176;2022-10-16T02:40:46;12.40;99.90
27270;DHT22;14769;56.934;24.176;2022-10-16T02:41:51;12.40;99.90
27270;DHT22;14769;56.934;24.176;2022-10-16T02:43:11;12.50;99.90
27270;DHT22;14769;56.934;24.176;2022-10-16T02:44:14;12.50;99.90
27270;DHT22;14769;56.934;24.176;2022-10-16T02:45:17;12.50;99.90
27270;DHT22;14769;56.934;24.176;2022-10-16T02:46:19;12.50;99.90
27270;DHT22;14769;56.934;24.176;2022-10-16T02:47:21;12.50;99.90
27270;DHT22;14769;56.934;24.176;2022-10-16T02:48:24;12.50;99.90
27270;DHT22;14769;56.934;24.176;2022-10-16T02:49:29;12.50;99.90
27270;DHT22;14769;56.934;24.176;2022-10-16T02:50:31;12.50;99.90
27270;DHT22;14769;56.934;24.176;2022-10-16T02:51:33;12.50;99.90
27270;DHT22;14769;56.934;24.176;2022-10-16T02:52:35;12.60;99.90
27270;DHT22;14769;56.934;24.176;2022-10-16T02:53:37;12.60;99.90
27270;DHT22;14769;56.934;24.176;2022-10-16T02:54:42;12.50;99.90
27270;DHT22;14769;56.934;24.176;2022-10-16T02:55:44;12.50;99.90
27270;DHT22;14769;56.934;24.176;2022-10-16T02:56:46;12.50;99.90
27270;DHT22;14769;56.934;24.176;2022-10-16T02:57:48;12.50;99.90
27270;DHT22;14769;56.934;24.176;2022-10-16T02:58:50;12.60;99.90
27270;DHT22;14769;56.934;24.176;2022-10-16T02:59:52;12.60;99.90
27270;DHT22;14769;56.934;24.176;2022-10-16T03:00:55;12.60;99.90
27270;DHT22;14769;56.934;24.176;2022-10-16T03:02:01;12.60;99.90
27270;DHT22;14769;56.934;24.176;2022-10-16T03:03:03;12.60;99.90
27270;DHT22;14769;56.934;24.176;2022-10-16T03:04:23;12.60;99.90
27270;DHT22;14769;56.934;24.176;2022-10-16T03:07:47;12.60;99.90
27270;DHT22;14769;56.934;24.176;2022-10-16T03:08:56;12.50;99.90
27270;DHT22;14769;56.934;24.176;2022-10-16T03:11:45;12.50;99.90
27270;DHT22;14769;56.934;24.176;2022-10-16T03:12:51;12.60;99.90
27270;DHT22;14769;56.934;24.176;2022-10-16T03:15:50;12.60;99.90
27270;DHT22;14769;56.934;24.176;2022-10-16T03:16:57;12.60;99.90
27270;DHT22;14769;56.934;24.176;2022-10-16T03:18:10;12.50;99.90
27270;DHT22;14769;56.934;24.176;2022-10-16T03:19:24;12.60;99.90
27270;DHT22;14769;56.934;24.176;2022-10-16T03:20:37;12.70;99.90
27270;DHT22;14769;56.934;24.176;2022-10-16T03:21:45;12.60;99.90
27270;DHT22;14769;56.934;24.176;2022-10-16T03:23:00;12.70;99.90
27270;DHT22;14769;56.934;24.176;2022-10-16T03:24:07;12.60;99.90
27270;DHT22;14769;56.934;24.176;2022-10-16T03:25:12;12.60;99.90
27270;DHT22;14769;56.934;24.176;2022-10-16T03:26:25;12.70;99.90
27270;DHT22;14769;56.934;24.176;2022-10-16T03:27:27;12.70;99.90
27270;DHT22;14769;56.934;24.176;2022-10-16T03:28:34;12.70;99.90
27270;DHT22;14769;56.934;24.176;2022-10-16T03:29:42;12.70;99.90
27270;DHT22;14769;56.934;24.176;2022-10-16T03:30:46;12.70;99.90
27270;DHT22;14769;56.934;24.176;2022-10-16T03:31:51;12.70;99.90
27270;DHT22;14769;56.934;24.176;2022-10-16T03:32:57;12.70;99.90
27270;DHT22;14769;56.934;24.176;2022-10-16T03:34:12;12.70;99.90
27270;DHT22;14769;56.934;24.176;2022-10-16T03:35:50;12.70;99.90
27270;DHT22;14769;56.934;24.176;2022-10-16T03:37:11;12.80;99.90
27270;DHT22;14769;56.934;24.176;2022-10-16T03:40:12;12.70;99.90
27270;DHT22;14769;56.934;24.176;2022-10-16T03:41:22;12.70;99.90
27270;DHT22;14769;56.934;24.176;2022-10-16T03:42:41;12.70;99.90
27270;DHT22;14769;56.934;24.176;2022-10-16T03:43:48;12.70;99.90
27270;DHT22;14769;56.934;24.176;2022-10-16T03:48:08;12.70;99.90
27270;DHT22;14769;56.934;24.176;2022-10-16T03:49:29;12.70;99.90
27270;DHT22;14769;56.934;24.176;2022-10-16T03:50:47;12.70;99.90
27270;DHT22;14769;56.934;24.176;2022-10-16T03:51:52;12.70;99.90
27270;DHT22;14769;56.934;24.176;2022-10-16T03:53:02;12.70;99.90
27270;DHT22;14769;56.934;24.176;2022-10-16T03:54:05;12.80;99.90
27270;DHT22;14769;56.934;24.176;2022-10-16T03:55:35;12.80;99.90
27270;DHT22;14769;56.934;24.176;2022-10-16T03:59:41;12.80;99.90
27270;DHT22;14769;56.934;24.176;2022-10-16T04:00:44;12.70;99.90
27270;DHT22;14769;56.934;24.176;2022-10-16T04:01:46;12.80;99.90
27270;DHT22;14769;56.934;24.176;2022-10-16T04:02:49;12.80;99.90
27270;DHT22;14769;56.934;24.176;2022-10-16T04:03:51;12.80;99.90
27270;DHT22;14769;56.934;24.176;2022-10-16T04:04:53;12.80;99.90
27270;DHT22;14769;56.934;24.176;2022-10-16T04:05:56;12.90;99.90
27270;DHT22;14769;56.934;24.176;2022-10-16T04:07:01;12.90;99.90
27270;DHT22;14769;56.934;24.176;2022-10-16T04:08:04;12.90;99.90
27270;DHT22;14769;56.934;24.176;2022-10-16T04:09:06;12.90;99.90
27270;DHT22;14769;56.934;24.176;2022-10-16T04:10:09;12.90;99.90
27270;DHT22;14769;56.934;24.176;2022-10-16T04:11:12;13.00;99.90
27270;DHT22;14769;56.934;24.176;2022-10-16T04:12:14;13.00;99.90
27270;DHT22;14769;56.934;24.176;2022-10-16T04:13:28;13.00;99.90
27270;DHT22;14769;56.934;24.176;2022-10-16T04:14:32;13.00;99.90
27270;DHT22;14769;56.934;24.176;2022-10-16T04:15:41;13.00;99.90
27270;DHT22;14769;56.934;24.176;2022-10-16T04:16:46;13.00;99.90
27270;DHT22;14769;56.934;24.176;2022-10-16T04:17:49;13.00;99.90
27270;DHT22;14769;56.934;24.176;2022-10-16T04:18:53;13.00;99.90
27270;DHT22;14769;56.934;24.176;2022-10-16T04:19:58;13.00;99.90
27270;DHT22;14769;56.934;24.176;2022-10-16T04:21:09;13.00;99.90
27270;DHT22;14769;56.934;24.176;2022-10-16T04:22:14;13.00;99.90
27270;DHT22;14769;56.934;24.176;2022-10-16T04:23:22;13.00;99.90
27270;DHT22;14769;56.934;24.176;2022-10-16T04:24:32;13.00;99.90
27270;DHT22;14769;56.934;24.176;2022-10-16T04:25:34;13.00;99.90
27270;DHT22;14769;56.934;24.176;2022-10-16T04:26:37;13.00;99.90
27270;DHT22;14769;56.934;24.176;2022-10-16T04:27:40;13.00;99.90
27270;DHT22;14769;56.934;24.176;2022-10-16T04:28:46;13.00;99.90
27270;DHT22;14769;56.934;24.176;2022-10-16T04:29:51;13.10;99.90
27270;DHT22;14769;56.934;24.176;2022-10-16T04:30:57;13.00;99.90
27270;DHT22;14769;56.934;24.176;2022-10-16T04:31:59;13.10;99.90
27270;DHT22;14769;56.934;24.176;2022-10-16T04:33:01;13.00;99.90
27270;DHT22;14769;56.934;24.176;2022-10-16T04:34:06;13.00;99.90
27270;DHT22;14769;56.934;24.176;2022-10-16T04:35:09;13.10;99.90
27270;DHT22;14769;56.934;24.176;2022-10-16T04:36:12;13.10;99.90
27270;DHT22;14769;56.934;24.176;2022-10-16T04:37:14;13.10;99.90
27270;DHT22;14769;56.934;24.176;2022-10-16T04:38:16;13.10;99.90
27270;DHT22;14769;56.934;24.176;2022-10-16T04:39:24;13.10;99.90
27270;DHT22;14769;56.934;24.176;2022-10-16T04:40:26;13.10;99.90
27270;DHT22;14769;56.934;24.176;2022-10-16T04:41:33;13.10;99.90
27270;DHT22;14769;56.934;24.176;2022-10-16T04:42:35;13.10;99.90
27270;DHT22;14769;56.934;24.176;2022-10-16T04:43:41;13.10;99.90
27270;DHT22;14769;56.934;24.176;2022-10-16T04:44:45;13.10;99.90
27270;DHT22;14769;56.934;24.176;2022-10-16T04:45:47;13.20;99.90
27270;DHT22;14769;56.934;24.176;2022-10-16T04:46:53;13.10;99.90
27270;DHT22;14769;56.934;24.176;2022-10-16T04:48:00;13.10;99.90
27270;DHT22;14769;56.934;24.176;2022-10-16T04:49:02;13.10;99.90
27270;DHT22;14769;56.934;24.176;2022-10-16T04:50:07;13.20;99.90
27270;DHT22;14769;56.934;24.176;2022-10-16T04:51:10;13.10;99.90
27270;DHT22;14769;56.934;24.176;2022-10-16T04:52:12;13.10;99.90
27270;DHT22;14769;56.934;24.176;2022-10-16T04:53:17;13.10;99.90
27270;DHT22;14769;56.934;24.176;2022-10-16T04:54:19;13.10;99.90
27270;DHT22;14769;56.934;24.176;2022-10-16T04:55:21;13.20;99.90
27270;DHT22;14769;56.934;24.176;2022-10-16T04:56:26;13.20;99.90
27270;DHT22;14769;56.934;24.176;2022-10-16T04:57:29;13.10;99.90
27270;DHT22;14769;56.934;24.176;2022-10-16T04:58:36;13.20;99.90
27270;DHT22;14769;56.934;24.176;2022-10-16T04:59:39;13.10;99.90
27270;DHT22;14769;56.934;24.176;2022-10-16T05:00:42;13.20;99.90
27270;DHT22;14769;56.934;24.176;2022-10-16T05:01:47;13.20;99.90
27270;DHT22;14769;56.934;24.176;2022-10-16T05:02:53;13.20;99.90
27270;DHT22;14769;56.934;24.176;2022-10-16T05:03:57;13.20;99.90
27270;DHT22;14769;56.934;24.176;2022-10-16T05:05:03;13.10;99.90
27270;DHT22;14769;56.934;24.176;2022-10-16T05:06:06;13.10;99.90
27270;DHT22;14769;56.934;24.176;2022-10-16T05:07:10;13.20;99.90
27270;DHT22;14769;56.934;24.176;2022-10-16T05:08:14;13.20;99.90
27270;DHT22;14769;56.934;24.176;2022-10-16T05:09:20;13.20;99.90
27270;DHT22;14769;56.934;24.176;2022-10-16T05:10:30;13.20;99.90
27270;DHT22;14769;56.934;24.176;2022-10-16T05:11:46;13.20;99.90
27270;DHT22;14769;56.934;24.176;2022-10-16T05:12:58;13.20;99.90
27270;DHT22;14769;56.934;24.176;2022-10-16T05:14:28;13.10;99.90
27270;DHT22;14769;56.934;24.176;2022-10-16T05:24:03;13.10;99.90
27270;DHT22;14769;56.934;24.176;2022-10-16T05:25:18;13.00;99.90
27270;DHT22;14769;56.934;24.176;2022-10-16T05:26:20;13.10;99.90
27270;DHT22;14769;56.934;24.176;2022-10-16T05:27:30;13.10;99.90
27270;DHT22;14769;56.934;24.176;2022-10-16T05:29:28;13.20;99.90
27270;DHT22;14769;56.934;24.176;2022-10-16T05:31:26;13.20;99.90
27270;DHT22;14769;56.934;24.176;2022-10-16T05:32:38;13.10;99.90
27270;DHT22;14769;56.934;24.176;2022-10-16T05:33:45;13.10;99.90
27270;DHT22;14769;56.934;24.176;2022-10-16T05:34:47;13.20;99.90
27270;DHT22;14769;56.934;24.176;2022-10-16T05:35:50;13.20;99.90
27270;DHT22;14769;56.934;24.176;2022-10-16T05:36:52;13.20;99.90
27270;DHT22;14769;56.934;24.176;2022-10-16T05:37:54;13.20;99.90
27270;DHT22;14769;56.934;24.176;2022-10-16T05:39:02;13.30;99.90
27270;DHT22;14769;56.934;24.176;2022-10-16T05:40:06;13.30;99.90
27270;DHT22;14769;56.934;24.176;2022-10-16T05:41:10;13.30;99.90
27270;DHT22;14769;56.934;24.176;2022-10-16T05:42:13;13.30;99.90
27270;DHT22;14769;56.934;24.176;2022-10-16T05:43:16;13.30;99.90
27270;DHT22;14769;56.934;24.176;2022-10-16T05:44:20;13.30;99.90
27270;DHT22;14769;56.934;24.176;2022-10-16T05:45:25;13.30;99.90
27270;DHT22;14769;56.934;24.176;2022-10-16T05:46:27;13.30;99.90
27270;DHT22;14769;56.934;24.176;2022-10-16T05:47:29;13.40;99.90
27270;DHT22;14769;56.934;24.176;2022-10-16T05:48:32;13.40;99.90
27270;DHT22;14769;56.934;24.176;2022-10-16T05:50:18;13.40;99.90
27270;DHT22;14769;56.934;24.176;2022-10-16T05:51:21;13.40;99.90
27270;DHT22;14769;56.934;24.176;2022-10-16T05:52:24;13.40;99.90
27270;DHT22;14769;56.934;24.176;2022-10-16T05:53:30;13.40;99.90
27270;DHT22;14769;56.934;24.176;2022-10-16T05:54:33;13.40;99.90
27270;DHT22;14769;56.934;24.176;2022-10-16T05:55:37;13.40;99.90
27270;DHT22;14769;56.934;24.176;2022-10-16T05:56:40;13.40;99.90
27270;DHT22;14769;56.934;24.176;2022-10-16T05:57:42;13.40;99.90
27270;DHT22;14769;56.934;24.176;2022-10-16T05:58:48;13.40;99.90
27270;DHT22;14769;56.934;24.176;2022-10-16T05:59:56;13.40;99.90
27270;DHT22;14769;56.934;24.176;2022-10-16T06:01:01;13.40;99.90
27270;DHT22;14769;56.934;24.176;2022-10-16T06:02:05;13.50;99.90
27270;DHT22;14769;56.934;24.176;2022-10-16T06:03:06;13.40;99.90
27270;DHT22;14769;56.934;24.176;2022-10-16T06:04:15;13.40;99.90
27270;DHT22;14769;56.934;24.176;2022-10-16T06:05:17;13.50;99.90
27270;DHT22;14769;56.934;24.176;2022-10-16T06:06:22;13.50;99.90
27270;DHT22;14769;56.934;24.176;2022-10-16T06:07:26;13.50;99.90
27270;DHT22;14769;56.934;24.176;2022-10-16T06:08:28;13.50;99.90
27270;DHT22;14769;56.934;24.176;2022-10-16T06:09:31;13.50;99.90
27270;DHT22;14769;56.934;24.176;2022-10-16T06:10:33;13.50;99.90
27270;DHT22;14769;56.934;24.176;2022-10-16T06:11:36;13.50;99.90
27270;DHT22;14769;56.934;24.176;2022-10-16T06:12:38;13.50;99.90
27270;DHT22;14769;56.934;24.176;2022-10-16T06:13:41;13.50;99.90
27270;DHT22;14769;56.934;24.176;2022-10-16T06:14:45;13.50;99.90
27270;DHT22;14769;56.934;24.176;2022-10-16T06:15:48;13.50;99.90
27270;DHT22;14769;56.934;24.176;2022-10-16T06:16:50;13.60;99.90
27270;DHT22;14769;56.934;24.176;2022-10-16T06:17:56;13.60;99.90
27270;DHT22;14769;56.934;24.176;2022-10-16T06:19:02;13.50;99.90
27270;DHT22;14769;56.934;24.176;2022-10-16T06:20:10;13.60;99.90
27270;DHT22;14769;56.934;24.176;2022-10-16T06:21:39;13.60;99.90
27270;DHT22;14769;56.934;24.176;2022-10-16T06:22:46;13.60;99.90
27270;DHT22;14769;56.934;24.176;2022-10-16T06:23:52;13.60;99.90
27270;DHT22;14769;56.934;24.176;2022-10-16T06:31:58;13.50;99.90
27270;DHT22;14769;56.934;24.176;2022-10-16T06:33:45;13.50;99.90
27270;DHT22;14769;56.934;24.176;2022-10-16T06:37:40;13.50;99.90
27270;DHT22;14769;56.934;24.176;2022-10-16T06:39:02;13.50;99.90
27270;DHT22;14769;56.934;24.176;2022-10-16T06:40:10;13.50;99.90
27270;DHT22;14769;56.934;24.176;2022-10-16T06:41:18;13.60;99.90
27270;DHT22;14769;56.934;24.176;2022-10-16T06:42:30;13.50;99.90
27270;DHT22;14769;56.934;24.176;2022-10-16T06:43:33;13.60;99.90
27270;DHT22;14769;56.934;24.176;2022-10-16T06:44:38;13.60;99.90
27270;DHT22;14769;56.934;24.176;2022-10-16T06:45:43;13.60;99.90
27270;DHT22;14769;56.934;24.176;2022-10-16T06:46:56;13.70;99.90
27270;DHT22;14769;56.934;24.176;2022-10-16T06:47:59;13.70;99.90
27270;DHT22;14769;56.934;24.176;2022-10-16T06:49:01;13.70;99.90
27270;DHT22;14769;56.934;24.176;2022-10-16T06:50:04;13.70;99.90
27270;DHT22;14769;56.934;24.176;2022-10-16T06:51:13;13.70;99.90
27270;DHT22;14769;56.934;24.176;2022-10-16T06:52:15;13.70;99.90
27270;DHT22;14769;56.934;24.176;2022-10-16T06:53:18;13.70;99.90
27270;DHT22;14769;56.934;24.176;2022-10-16T06:54:19;13.80;99.90
27270;DHT22;14769;56.934;24.176;2022-10-16T06:55:21;13.80;99.90
27270;DHT22;14769;56.934;24.176;2022-10-16T06:56:25;13.80;99.90
27270;DHT22;14769;56.934;24.176;2022-10-16T06:57:28;13.80;99.90
27270;DHT22;14769;56.934;24.176;2022-10-16T06:58:30;13.80;99.90
27270;DHT22;14769;56.934;24.176;2022-10-16T06:59:32;13.80;99.90
27270;DHT22;14769;56.934;24.176;2022-10-16T07:00:33;13.80;99.90
27270;DHT22;14769;56.934;24.176;2022-10-16T07:01:35;13.80;99.90
27270;DHT22;14769;56.934;24.176;2022-10-16T07:02:37;13.80;99.90
27270;DHT22;14769;56.934;24.176;2022-10-16T07:03:40;13.90;99.90
27270;DHT22;14769;56.934;24.176;2022-10-16T07:04:43;13.90;99.90
27270;DHT22;14769;56.934;24.176;2022-10-16T07:05:45;13.90;99.90
27270;DHT22;14769;56.934;24.176;2022-10-16T07:06:47;13.90;99.90
27270;DHT22;14769;56.934;24.176;2022-10-16T07:07:49;13.90;99.90
27270;DHT22;14769;56.934;24.176;2022-10-16T07:08:51;13.90;99.90
27270;DHT22;14769;56.934;24.176;2022-10-16T07:09:53;13.90;99.90
27270;DHT22;14769;56.934;24.176;2022-10-16T07:11:05;13.90;99.90
27270;DHT22;14769;56.934;24.176;2022-10-16T07:12:07;13.90;99.90
27270;DHT22;14769;56.934;24.176;2022-10-16T07:13:16;13.90;99.90
27270;DHT22;14769;56.934;24.176;2022-10-16T07:14:20;13.90;99.90
27270;DHT22;14769;56.934;24.176;2022-10-16T07:15:23;13.80;99.90
27270;DHT22;14769;56.934;24.176;2022-10-16T07:16:31;13.90;99.90
27270;DHT22;14769;56.934;24.176;2022-10-16T07:17:33;13.90;99.90
27270;DHT22;14769;56.934;24.176;2022-10-16T07:18:36;13.90;99.90
27270;DHT22;14769;56.934;24.176;2022-10-16T07:19:38;13.90;99.90
27270;DHT22;14769;56.934;24.176;2022-10-16T07:20:40;13.90;99.90
27270;DHT22;14769;56.934;24.176;2022-10-16T07:21:42;14.00;99.90
27270;DHT22;14769;56.934;24.176;2022-10-16T07:22:44;14.00;99.90
27270;DHT22;14769;56.934;24.176;2022-10-16T07:23:52;14.00;99.90
27270;DHT22;14769;56.934;24.176;2022-10-16T07:24:54;14.00;99.90
27270;DHT22;14769;56.934;24.176;2022-10-16T07:25:56;14.00;99.90
27270;DHT22;14769;56.934;24.176;2022-10-16T07:26:58;14.00;99.90
27270;DHT22;14769;56.934;24.176;2022-10-16T07:28:00;14.10;99.90
27270;DHT22;14769;56.934;24.176;2022-10-16T07:29:02;14.00;99.90
27270;DHT22;14769;56.934;24.176;2022-10-16T07:30:05;14.00;99.90
27270;DHT22;14769;56.934;24.176;2022-10-16T07:31:12;14.10;99.90
27270;DHT22;14769;56.934;24.176;2022-10-16T07:32:15;14.10;99.90
27270;DHT22;14769;56.934;24.176;2022-10-16T07:33:17;14.10;99.90
27270;DHT22;14769;56.934;24.176;2022-10-16T07:34:19;14.00;99.90
27270;DHT22;14769;56.934;24.176;2022-10-16T07:35:23;14.10;99.90
27270;DHT22;14769;56.934;24.176;2022-10-16T07:36:25;14.10;99.90
27270;DHT22;14769;56.934;24.176;2022-10-16T07:37:27;14.00;99.90
27270;DHT22;14769;56.934;24.176;2022-10-16T07:38:29;14.00;99.90
27270;DHT22;14769;56.934;24.176;2022-10-16T07:39:31;14.10;99.90
27270;DHT22;14769;56.934;24.176;2022-10-16T07:40:33;14.10;99.90
27270;DHT22;14769;56.934;24.176;2022-10-16T07:41:34;14.10;99.90
27270;DHT22;14769;56.934;24.176;2022-10-16T07:42:38;14.10;99.90
27270;DHT22;14769;56.934;24.176;2022-10-16T07:43:45;14.10;99.90
27270;DHT22;14769;56.934;24.176;2022-10-16T07:44:47;14.10;99.90
27270;DHT22;14769;56.934;24.176;2022-10-16T07:45:50;14.00;99.90
27270;DHT22;14769;56.934;24.176;2022-10-16T07:46:53;14.10;99.90
27270;DHT22;14769;56.934;24.176;2022-10-16T07:47:55;14.10;99.90
27270;DHT22;14769;56.934;24.176;2022-10-16T07:48:57;14.10;99.90
27270;DHT22;14769;56.934;24.176;2022-10-16T07:49:59;14.20;99.90
27270;DHT22;14769;56.934;24.176;2022-10-16T07:51:04;14.20;99.90